sensor_id;sensor_type;location;lat;lon;timestamp;temperature;humidity
43524;DHT22;29120;52.006;6.020;2022-12-10T00:01:30;-1.10;99.90
43524;DHT22;29120;52.006;6.020;2022-12-10T00:03:56;-1.10;99.90
43524;DHT22;29120;52.006;6.020;2022-12-10T00:06:22;-1.10;99.90
43524;DHT22;29120;52.006;6.020;2022-12-10T00:08:48;-1.10;99.90
43524;DHT22;29120;52.006;6.020;2022-12-10T00:11:14;-1.00;99.90
43524;DHT22;29120;52.006;6.020;2022-12-10T00:13:40;-1.00;99.90
43524;DHT22;29120;52.006;6.020;2022-12-10T00:16:07;-1.00;99.90
43524;DHT22;29120;52.006;6.020;2022-12-10T00:18:33;-1.00;99.90
43524;DHT22;29120;52.006;6.020;2022-12-10T00:21:01;-1.00;99.90
43524;DHT22;29120;52.006;6.020;2022-12-10T00:23:27;-1.00;99.90
43524;DHT22;29120;52.006;6.020;2022-12-10T00:25:52;-1.00;99.90
43524;DHT22;29120;52.006;6.020;2022-12-10T00:28:18;-1.00;99.90
43524;DHT22;29120;52.006;6.020;2022-12-10T00:30:43;-0.90;99.90
43524;DHT22;29120;52.006;6.020;2022-12-10T00:33:09;-0.90;99.90
43524;DHT22;29120;52.006;6.020;2022-12-10T00:35:35;-0.90;99.90
43524;DHT22;29120;52.006;6.020;2022-12-10T00:38:00;-0.90;99.90
43524;DHT22;29120;52.006;6.020;2022-12-10T00:40:26;-0.90;99.90
43524;DHT22;29120;52.006;6.020;2022-12-10T00:42:51;-0.90;99.90
43524;DHT22;29120;52.006;6.020;2022-12-10T00:45:17;-0.90;99.90
43524;DHT22;29120;52.006;6.020;2022-12-10T00:47:42;-0.90;99.90
43524;DHT22;29120;52.006;6.020;2022-12-10T00:50:08;-0.90;99.90
43524;DHT22;29120;52.006;6.020;2022-12-10T00:52:33;-1.00;99.90
43524;DHT22;29120;52.006;6.020;2022-12-10T00:54:59;-1.00;99.90
43524;DHT22;29120;52.006;6.020;2022-12-10T00:57:24;-1.00;99.90
43524;DHT22;29120;52.006;6.020;2022-12-10T00:59:50;-0.90;99.90
43524;DHT22;29120;52.006;6.020;2022-12-10T01:02:15;-0.90;99.90
43524;DHT22;29120;52.006;6.020;2022-12-10T01:04:41;-0.90;99.90
43524;DHT22;29120;52.006;6.020;2022-12-10T01:07:06;-0.90;99.90
43524;DHT22;29120;52.006;6.020;2022-12-10T01:09:31;-0.90;99.90
43524;DHT22;29120;52.006;6.020;2022-12-10T01:11:57;-0.90;99.90
43524;DHT22;29120;52.006;6.020;2022-12-10T01:14:26;-0.90;99.90
43524;DHT22;29120;52.006;6.020;2022-12-10T01:16:59;-0.90;99.90
43524;DHT22;29120;52.006;6.020;2022-12-10T01:19:25;-0.90;99.90
43524;DHT22;29120;52.006;6.020;2022-12-10T01:21:51;-0.90;99.90
43524;DHT22;29120;52.006;6.020;2022-12-10T01:24:17;-1.00;99.90
43524;DHT22;29120;52.006;6.020;2022-12-10T01:26:42;-1.00;99.90
43524;DHT22;29120;52.006;6.020;2022-12-10T01:29:09;-1.00;99.90
43524;DHT22;29120;52.006;6.020;2022-12-10T01:31:36;-1.00;99.90
43524;DHT22;29120;52.006;6.020;2022-12-10T01:34:02;-1.00;99.90
43524;DHT22;29120;52.006;6.020;2022-12-10T01:36:29;-1.00;99.90
43524;DHT22;29120;52.006;6.020;2022-12-10T01:38:55;-1.10;99.90
43524;DHT22;29120;52.006;6.020;2022-12-10T01:41:31;-1.00;99.90
43524;DHT22;29120;52.006;6.020;2022-12-10T01:44:01;-1.10;99.90
43524;DHT22;29120;52.006;6.020;2022-12-10T01:46:31;-1.10;99.90
43524;DHT22;29120;52.006;6.020;2022-12-10T01:48:57;-1.10;99.90
43524;DHT22;29120;52.006;6.020;2022-12-10T01:51:24;-1.20;99.90
43524;DHT22;29120;52.006;6.020;2022-12-10T01:53:50;-1.10;99.90
43524;DHT22;29120;52.006;6.020;2022-12-10T01:56:16;-1.20;99.90
43524;DHT22;29120;52.006;6.020;2022-12-10T01:58:42;-1.20;99.90
43524;DHT22;29120;52.006;6.020;2022-12-10T02:01:13;-1.20;99.90
43524;DHT22;29120;52.006;6.020;2022-12-10T02:04:01;-1.30;99.90
43524;DHT22;29120;52.006;6.020;2022-12-10T02:14:52;-1.40;99.90
43524;DHT22;29120;52.006;6.020;2022-12-10T02:17:19;-1.40;99.90
43524;DHT22;29120;52.006;6.020;2022-12-10T02:22:26;-1.40;99.90
43524;DHT22;29120;52.006;6.020;2022-12-10T02:24:53;-1.50;99.90
43524;DHT22;29120;52.006;6.020;2022-12-10T02:27:25;-1.50;99.90
43524;DHT22;29120;52.006;6.020;2022-12-10T02:29:51;-1.50;99.90
43524;DHT22;29120;52.006;6.020;2022-12-10T02:32:23;-1.50;99.90
43524;DHT22;29120;52.006;6.020;2022-12-10T02:34:51;-1.50;99.90
43524;DHT22;29120;52.006;6.020;2022-12-10T02:37:20;-1.50;99.90
43524;DHT22;29120;52.006;6.020;2022-12-10T02:39:48;-1.50;99.90
43524;DHT22;29120;52.006;6.020;2022-12-10T02:42:15;-1.50;99.90
43524;DHT22;29120;52.006;6.020;2022-12-10T02:44:41;-1.50;99.90
43524;DHT22;29120;52.006;6.020;2022-12-10T02:47:07;-1.50;99.90
43524;DHT22;29120;52.006;6.020;2022-12-10T02:49:34;-1.50;99.90
43524;DHT22;29120;52.006;6.020;2022-12-10T02:52:05;-1.50;99.90
43524;DHT22;29120;52.006;6.020;2022-12-10T02:54:38;-1.50;99.90
43524;DHT22;29120;52.006;6.020;2022-12-10T03:00:05;-1.40;99.90
43524;DHT22;29120;52.006;6.020;2022-12-10T03:02:37;-1.40;99.90
43524;DHT22;29120;52.006;6.020;2022-12-10T03:05:41;-1.40;99.90
43524;DHT22;29120;52.006;6.020;2022-12-10T03:10:31;-1.30;99.90
43524;DHT22;29120;52.006;6.020;2022-12-10T03:12:58;-1.30;99.90
43524;DHT22;29120;52.006;6.020;2022-12-10T03:15:25;-1.30;99.90
43524;DHT22;29120;52.006;6.020;2022-12-10T03:17:51;-1.40;99.90
43524;DHT22;29120;52.006;6.020;2022-12-10T03:20:18;-1.40;99.90
43524;DHT22;29120;52.006;6.020;2022-12-10T03:22:45;-1.40;99.90
43524;DHT22;29120;52.006;6.020;2022-12-10T03:25:12;-1.50;99.90
43524;DHT22;29120;52.006;6.020;2022-12-10T03:27:39;-1.50;99.90
43524;DHT22;29120;52.006;6.020;2022-12-10T03:30:05;-1.50;99.90
43524;DHT22;29120;52.006;6.020;2022-12-10T03:32:31;-1.60;99.90
43524;DHT22;29120;52.006;6.020;2022-12-10T03:34:57;-1.60;99.90
43524;DHT22;29120;52.006;6.020;2022-12-10T03:37:24;-1.60;99.90
43524;DHT22;29120;52.006;6.020;2022-12-10T03:39:50;-1.60;99.90
43524;DHT22;29120;52.006;6.020;2022-12-10T03:42:16;-1.60;99.90
43524;DHT22;29120;52.006;6.020;2022-12-10T03:44:41;-1.60;99.90
43524;DHT22;29120;52.006;6.020;2022-12-10T03:47:08;-1.60;99.90
43524;DHT22;29120;52.006;6.020;2022-12-10T03:49:34;-1.70;99.90
43524;DHT22;29120;52.006;6.020;2022-12-10T03:52:00;-1.60;99.90
43524;DHT22;29120;52.006;6.020;2022-12-10T03:54:25;-1.60;99.90
43524;DHT22;29120;52.006;6.020;2022-12-10T03:56:51;-1.60;99.90
43524;DHT22;29120;52.006;6.020;2022-12-10T03:59:16;-1.60;99.90
43524;DHT22;29120;52.006;6.020;2022-12-10T04:01:42;-1.60;99.90
43524;DHT22;29120;52.006;6.020;2022-12-10T04:04:07;-1.60;99.90
43524;DHT22;29120;52.006;6.020;2022-12-10T04:06:33;-1.60;99.90
43524;DHT22;29120;52.006;6.020;2022-12-10T04:08:59;-1.60;99.90
43524;DHT22;29120;52.006;6.020;2022-12-10T04:11:24;-1.50;99.90
43524;DHT22;29120;52.006;6.020;2022-12-10T04:13:50;-1.50;99.90
43524;DHT22;29120;52.006;6.020;2022-12-10T04:16:34;-1.40;99.90
43524;DHT22;29120;52.006;6.020;2022-12-10T04:19:07;-1.30;99.90
43524;DHT22;29120;52.006;6.020;2022-12-10T04:21:34;-1.30;99.90
43524;DHT22;29120;52.006;6.020;2022-12-10T04:24:20;-1.30;99.90
43524;DHT22;29120;52.006;6.020;2022-12-10T04:29:31;-1.30;99.90
43524;DHT22;29120;52.006;6.020;2022-12-10T04:31:56;-1.30;99.90
43524;DHT22;29120;52.006;6.020;2022-12-10T04:34:22;-1.30;99.90
43524;DHT22;29120;52.006;6.020;2022-12-10T04:36:48;-1.30;99.90
43524;DHT22;29120;52.006;6.020;2022-12-10T04:39:14;-1.30;99.90
43524;DHT22;29120;52.006;6.020;2022-12-10T04:41:40;-1.20;99.90
43524;DHT22;29120;52.006;6.020;2022-12-10T04:44:06;-1.20;99.90
43524;DHT22;29120;52.006;6.020;2022-12-10T04:46:32;-1.20;99.90
43524;DHT22;29120;52.006;6.020;2022-12-10T04:48:57;-1.10;99.90
43524;DHT22;29120;52.006;6.020;2022-12-10T04:51:23;-1.10;99.90
43524;DHT22;29120;52.006;6.020;2022-12-10T04:53:48;-1.00;99.90
43524;DHT22;29120;52.006;6.020;2022-12-10T04:56:13;-0.90;99.90
43524;DHT22;29120;52.006;6.020;2022-12-10T04:58:39;-0.80;99.90
43524;DHT22;29120;52.006;6.020;2022-12-10T05:01:06;-0.80;99.90
43524;DHT22;29120;52.006;6.020;2022-12-10T05:03:32;-0.70;99.90
43524;DHT22;29120;52.006;6.020;2022-12-10T05:06:01;-0.70;99.90
43524;DHT22;29120;52.006;6.020;2022-12-10T05:08:27;-0.70;99.90
43524;DHT22;29120;52.006;6.020;2022-12-10T05:10:52;-0.60;99.90
43524;DHT22;29120;52.006;6.020;2022-12-10T05:13:18;-0.60;99.90
43524;DHT22;29120;52.006;6.020;2022-12-10T05:15:43;-0.50;99.90
43524;DHT22;29120;52.006;6.020;2022-12-10T05:18:09;-0.50;99.90
43524;DHT22;29120;52.006;6.020;2022-12-10T05:20:34;-0.50;99.90
43524;DHT22;29120;52.006;6.020;2022-12-10T05:23:00;-0.50;99.90
43524;DHT22;29120;52.006;6.020;2022-12-10T05:25:44;-0.50;99.90
43524;DHT22;29120;52.006;6.020;2022-12-10T05:28:21;-0.50;99.90
43524;DHT22;29120;52.006;6.020;2022-12-10T05:30:46;-0.50;99.90
43524;DHT22;29120;52.006;6.020;2022-12-10T05:33:13;-0.40;99.90
43524;DHT22;29120;52.006;6.020;2022-12-10T05:35:38;-0.50;99.90
43524;DHT22;29120;52.006;6.020;2022-12-10T05:38:04;-0.40;99.90
43524;DHT22;29120;52.006;6.020;2022-12-10T05:40:33;-0.40;99.90
43524;DHT22;29120;52.006;6.020;2022-12-10T05:42:59;-0.40;99.90
43524;DHT22;29120;52.006;6.020;2022-12-10T05:45:24;-0.40;99.90
43524;DHT22;29120;52.006;6.020;2022-12-10T05:47:50;-0.50;99.90
43524;DHT22;29120;52.006;6.020;2022-12-10T05:50:15;-0.50;99.90
43524;DHT22;29120;52.006;6.020;2022-12-10T05:52:41;-0.50;99.90
43524;DHT22;29120;52.006;6.020;2022-12-10T05:55:06;-0.50;99.90
43524;DHT22;29120;52.006;6.020;2022-12-10T05:57:32;-0.50;99.90
43524;DHT22;29120;52.006;6.020;2022-12-10T05:59:57;-0.50;99.90
43524;DHT22;29120;52.006;6.020;2022-12-10T06:02:23;-0.50;99.90
43524;DHT22;29120;52.006;6.020;2022-12-10T06:04:48;-0.50;99.90
43524;DHT22;29120;52.006;6.020;2022-12-10T06:07:14;-0.50;99.90
43524;DHT22;29120;52.006;6.020;2022-12-10T06:09:39;-0.50;99.90
43524;DHT22;29120;52.006;6.020;2022-12-10T06:12:05;-0.50;99.90
43524;DHT22;29120;52.006;6.020;2022-12-10T06:14:30;-0.50;99.90
43524;DHT22;29120;52.006;6.020;2022-12-10T06:16:56;-0.50;99.90
43524;DHT22;29120;52.006;6.020;2022-12-10T06:19:21;-0.60;99.90
43524;DHT22;29120;52.006;6.020;2022-12-10T06:21:47;-0.50;99.90
43524;DHT22;29120;52.006;6.020;2022-12-10T06:24:12;-0.50;99.90
43524;DHT22;29120;52.006;6.020;2022-12-10T06:26:37;-0.40;99.90
43524;DHT22;29120;52.006;6.020;2022-12-10T06:29:03;-0.40;99.90
43524;DHT22;29120;52.006;6.020;2022-12-10T06:31:29;-0.40;99.90
43524;DHT22;29120;52.006;6.020;2022-12-10T06:33:55;-0.40;99.90
43524;DHT22;29120;52.006;6.020;2022-12-10T06:36:21;-0.40;99.90
43524;DHT22;29120;52.006;6.020;2022-12-10T06:38:46;-0.50;99.90
43524;DHT22;29120;52.006;6.020;2022-12-10T06:41:13;-0.40;99.90
43524;DHT22;29120;52.006;6.020;2022-12-10T06:43:39;-0.40;99.90
43524;DHT22;29120;52.006;6.020;2022-12-10T06:46:08;-0.30;99.90
43524;DHT22;29120;52.006;6.020;2022-12-10T06:48:34;-0.30;99.90
43524;DHT22;29120;52.006;6.020;2022-12-10T06:50:59;-0.40;99.90
43524;DHT22;29120;52.006;6.020;2022-12-10T06:53:25;-0.40;99.90
43524;DHT22;29120;52.006;6.020;2022-12-10T06:55:51;-0.40;99.90
43524;DHT22;29120;52.006;6.020;2022-12-10T06:58:16;-0.40;99.90
43524;DHT22;29120;52.006;6.020;2022-12-10T07:00:41;-0.40;99.90
43524;DHT22;29120;52.006;6.020;2022-12-10T07:03:07;-0.40;99.90
43524;DHT22;29120;52.006;6.020;2022-12-10T07:05:32;-0.40;99.90
43524;DHT22;29120;52.006;6.020;2022-12-10T07:07:58;-0.30;99.90
43524;DHT22;29120;52.006;6.020;2022-12-10T07:10:23;-0.30;99.90
43524;DHT22;29120;52.006;6.020;2022-12-10T07:12:49;-0.30;99.90
43524;DHT22;29120;52.006;6.020;2022-12-10T07:15:14;-0.40;99.90
43524;DHT22;29120;52.006;6.020;2022-12-10T07:17:40;-0.40;99.90
43524;DHT22;29120;52.006;6.020;2022-12-10T07:20:06;-0.50;99.90
43524;DHT22;29120;52.006;6.020;2022-12-10T07:22:31;-0.60;99.90
43524;DHT22;29120;52.006;6.020;2022-12-10T07:24:57;-0.70;99.90
43524;DHT22;29120;52.006;6.020;2022-12-10T07:27:22;-0.70;99.90
43524;DHT22;29120;52.006;6.020;2022-12-10T07:29:48;-0.70;99.90
43524;DHT22;29120;52.006;6.020;2022-12-10T07:32:13;-0.70;99.90
43524;DHT22;29120;52.006;6.020;2022-12-10T07:34:39;-0.70;99.90
43524;DHT22;29120;52.006;6.020;2022-12-10T07:37:04;-0.90;99.90
43524;DHT22;29120;52.006;6.020;2022-12-10T07:39:29;-0.90;99.90
43524;DHT22;29120;52.006;6.020;2022-12-10T07:41:55;-0.90;99.90
43524;DHT22;29120;52.006;6.020;2022-12-10T07:44:22;-0.80;99.90
43524;DHT22;29120;52.006;6.020;2022-12-10T07:46:49;-0.80;99.90
43524;DHT22;29120;52.006;6.020;2022-12-10T07:49:15;-0.90;99.90
43524;DHT22;29120;52.006;6.020;2022-12-10T07:51:44;-1.00;99.90
43524;DHT22;29120;52.006;6.020;2022-12-10T07:54:11;-1.00;99.90
43524;DHT22;29120;52.006;6.020;2022-12-10T07:56:36;-1.10;99.90
43524;DHT22;29120;52.006;6.020;2022-12-10T07:59:02;-1.10;99.90
43524;DHT22;29120;52.006;6.020;2022-12-10T08:01:27;-1.00;99.90
43524;DHT22;29120;52.006;6.020;2022-12-10T08:03:53;-1.00;99.90
43524;DHT22;29120;52.006;6.020;2022-12-10T08:06:21;-0.90;99.90
43524;DHT22;29120;52.006;6.020;2022-12-10T08:08:47;-0.80;99.90
43524;DHT22;29120;52.006;6.020;2022-12-10T08:11:13;-0.80;99.90
43524;DHT22;29120;52.006;6.020;2022-12-10T08:13:39;-0.70;99.90
43524;DHT22;29120;52.006;6.020;2022-12-10T08:16:06;-0.70;99.90
43524;DHT22;29120;52.006;6.020;2022-12-10T08:18:32;-0.50;99.90
43524;DHT22;29120;52.006;6.020;2022-12-10T08:21:01;-0.50;99.90
43524;DHT22;29120;52.006;6.020;2022-12-10T08:23:28;-0.60;99.90
43524;DHT22;29120;52.006;6.020;2022-12-10T08:25:53;-0.60;99.90
43524;DHT22;29120;52.006;6.020;2022-12-10T08:28:18;-0.60;99.90
43524;DHT22;29120;52.006;6.020;2022-12-10T08:30:47;-0.60;99.90
43524;DHT22;29120;52.006;6.020;2022-12-10T08:33:13;-0.60;99.90
43524;DHT22;29120;52.006;6.020;2022-12-10T08:35:38;-0.60;99.90
43524;DHT22;29120;52.006;6.020;2022-12-10T08:38:04;-0.60;99.90
43524;DHT22;29120;52.006;6.020;2022-12-10T08:40:29;-0.60;99.90
43524;DHT22;29120;52.006;6.020;2022-12-10T08:42:55;-0.70;99.90
43524;DHT22;29120;52.006;6.020;2022-12-10T08:45:20;-0.60;99.90
43524;DHT22;29120;52.006;6.020;2022-12-10T08:47:45;-0.60;99.90
43524;DHT22;29120;52.006;6.020;2022-12-10T08:50:11;-0.50;99.90
43524;DHT22;29120;52.006;6.020;2022-12-10T08:52:36;-0.50;99.90
43524;DHT22;29120;52.006;6.020;2022-12-10T08:55:02;-0.40;99.90
43524;DHT22;29120;52.006;6.020;2022-12-10T08:57:28;-0.40;99.90
43524;DHT22;29120;52.006;6.020;2022-12-10T08:59:53;-0.30;99.90
43524;DHT22;29120;52.006;6.020;2022-12-10T09:02:19;-0.20;99.90
43524;DHT22;29120;52.006;6.020;2022-12-10T09:04:44;-0.20;99.90
43524;DHT22;29120;52.006;6.020;2022-12-10T09:07:11;-0.20;99.90
43524;DHT22;29120;52.006;6.020;2022-12-10T09:09:37;-0.10;99.90
43524;DHT22;29120;52.006;6.020;2022-12-10T09:12:02;-0.10;99.90
43524;DHT22;29120;52.006;6.020;2022-12-10T09:14:28;-0.10;99.90
43524;DHT22;29120;52.006;6.020;2022-12-10T09:16:53;-0.10;99.90
43524;DHT22;29120;52.006;6.020;2022-12-10T09:19:19;-0.10;99.90
43524;DHT22;29120;52.006;6.020;2022-12-10T09:21:44;-0.10;99.90
43524;DHT22;29120;52.006;6.020;2022-12-10T09:24:10;-0.10;99.90
43524;DHT22;29120;52.006;6.020;2022-12-10T09:26:35;-0.10;99.90
43524;DHT22;29120;52.006;6.020;2022-12-10T09:29:00;0.00;99.90
43524;DHT22;29120;52.006;6.020;2022-12-10T09:31:26;0.00;99.90
43524;DHT22;29120;52.006;6.020;2022-12-10T09:33:52;0.00;99.90
43524;DHT22;29120;52.006;6.020;2022-12-10T09:36:18;0.00;99.90
43524;DHT22;29120;52.006;6.020;2022-12-10T09:38:44;0.10;99.90
43524;DHT22;29120;52.006;6.020;2022-12-10T09:48:31;0.20;99.90
43524;DHT22;29120;52.006;6.020;2022-12-10T09:53:23;0.20;99.90
43524;DHT22;29120;52.006;6.020;2022-12-10T09:55:49;0.20;99.90
43524;DHT22;29120;52.006;6.020;2022-12-10T09:58:20;0.20;99.90
43524;DHT22;29120;52.006;6.020;2022-12-10T10:01:07;0.20;99.90
43524;DHT22;29120;52.006;6.020;2022-12-10T10:03:33;0.20;99.90
43524;DHT22;29120;52.006;6.020;2022-12-10T10:06:00;0.20;99.90
43524;DHT22;29120;52.006;6.020;2022-12-10T10:08:32;0.30;99.90
43524;DHT22;29120;52.006;6.020;2022-12-10T10:10:59;0.30;99.90
43524;DHT22;29120;52.006;6.020;2022-12-10T10:13:30;0.30;99.90
43524;DHT22;29120;52.006;6.020;2022-12-10T10:15:57;0.30;99.90
43524;DHT22;29120;52.006;6.020;2022-12-10T10:20:57;0.30;99.90
43524;DHT22;29120;52.006;6.020;2022-12-10T10:23:23;0.40;99.90
43524;DHT22;29120;52.006;6.020;2022-12-10T10:25:48;0.40;99.90
43524;DHT22;29120;52.006;6.020;2022-12-10T10:28:17;0.50;99.90
43524;DHT22;29120;52.006;6.020;2022-12-10T10:30:43;0.50;99.90
43524;DHT22;29120;52.006;6.020;2022-12-10T10:33:10;0.50;99.90
43524;DHT22;29120;52.006;6.020;2022-12-10T10:36:09;0.50;99.90
43524;DHT22;29120;52.006;6.020;2022-12-10T10:38:28;0.50;99.90
43524;DHT22;29120;52.006;6.020;2022-12-10T10:40:58;0.50;99.90
43524;DHT22;29120;52.006;6.020;2022-12-10T10:43:25;0.40;99.90
43524;DHT22;29120;52.006;6.020;2022-12-10T10:46:01;0.40;99.90
43524;DHT22;29120;52.006;6.020;2022-12-10T10:48:27;0.30;99.90
43524;DHT22;29120;52.006;6.020;2022-12-10T10:50:54;0.40;99.90
43524;DHT22;29120;52.006;6.020;2022-12-10T10:53:25;0.40;99.90
43524;DHT22;29120;52.006;6.020;2022-12-10T10:55:51;0.40;99.90
43524;DHT22;29120;52.006;6.020;2022-12-10T10:58:19;0.30;99.90
43524;DHT22;29120;52.006;6.020;2022-12-10T11:00:58;0.40;99.90
43524;DHT22;29120;52.006;6.020;2022-12-10T11:03:25;0.40;99.90
43524;DHT22;29120;52.006;6.020;2022-12-10T11:05:51;0.40;99.90
43524;DHT22;29120;52.006;6.020;2022-12-10T11:08:17;0.30;99.90
43524;DHT22;29120;52.006;6.020;2022-12-10T11:10:46;0.30;99.90
43524;DHT22;29120;52.006;6.020;2022-12-10T11:13:20;0.40;99.90
43524;DHT22;29120;52.006;6.020;2022-12-10T11:15:53;0.30;99.90
43524;DHT22;29120;52.006;6.020;2022-12-10T11:18:24;0.30;99.90
43524;DHT22;29120;52.006;6.020;2022-12-10T11:21:06;0.40;99.90
43524;DHT22;29120;52.006;6.020;2022-12-10T11:23:42;0.40;99.90
43524;DHT22;29120;52.006;6.020;2022-12-10T11:26:11;0.50;99.90
43524;DHT22;29120;52.006;6.020;2022-12-10T11:31:26;0.60;99.90
43524;DHT22;29120;52.006;6.020;2022-12-10T11:34:00;0.60;99.90
43524;DHT22;29120;52.006;6.020;2022-12-10T11:39:02;0.80;99.90
43524;DHT22;29120;52.006;6.020;2022-12-10T11:41:36;0.80;99.90
43524;DHT22;29120;52.006;6.020;2022-12-10T11:44:13;0.90;99.90
43524;DHT22;29120;52.006;6.020;2022-12-10T11:49:17;0.90;99.90
43524;DHT22;29120;52.006;6.020;2022-12-10T11:56:43;0.80;99.90
43524;DHT22;29120;52.006;6.020;2022-12-10T11:59:15;0.80;99.90
43524;DHT22;29120;52.006;6.020;2022-12-10T12:04:33;0.90;99.90
43524;DHT22;29120;52.006;6.020;2022-12-10T12:10:01;0.90;99.90
43524;DHT22;29120;52.006;6.020;2022-12-10T12:12:41;0.90;99.90
43524;DHT22;29120;52.006;6.020;2022-12-10T12:15:18;0.80;99.90
43524;DHT22;29120;52.006;6.020;2022-12-10T12:17:49;0.80;99.90
43524;DHT22;29120;52.006;6.020;2022-12-10T12:20:57;0.80;99.90
43524;DHT22;29120;52.006;6.020;2022-12-10T12:25:49;0.80;99.90
43524;DHT22;29120;52.006;6.020;2022-12-10T12:30:45;0.80;99.90
43524;DHT22;29120;52.006;6.020;2022-12-10T12:33:13;0.80;99.90
43524;DHT22;29120;52.006;6.020;2022-12-10T12:35:43;0.80;99.90
43524;DHT22;29120;52.006;6.020;2022-12-10T12:41:14;0.70;99.90
43524;DHT22;29120;52.006;6.020;2022-12-10T12:46:09;0.80;99.90
43524;DHT22;29120;52.006;6.020;2022-12-10T12:48:41;0.80;99.90
43524;DHT22;29120;52.006;6.020;2022-12-10T12:53:57;1.00;99.90
43524;DHT22;29120;52.006;6.020;2022-12-10T12:59:09;0.90;99.90
43524;DHT22;29120;52.006;6.020;2022-12-10T13:01:40;0.80;99.90
43524;DHT22;29120;52.006;6.020;2022-12-10T13:04:06;0.80;99.90
43524;DHT22;29120;52.006;6.020;2022-12-10T13:06:33;0.90;99.90
43524;DHT22;29120;52.006;6.020;2022-12-10T13:11:36;1.00;99.90
43524;DHT22;29120;52.006;6.020;2022-12-10T13:27:03;1.10;99.90
43524;DHT22;29120;52.006;6.020;2022-12-10T13:29:29;1.10;99.90
43524;DHT22;29120;52.006;6.020;2022-12-10T13:32:13;1.10;99.90
43524;DHT22;29120;52.006;6.020;2022-12-10T13:34:39;1.20;99.90
43524;DHT22;29120;52.006;6.020;2022-12-10T13:37:18;1.20;99.90
43524;DHT22;29120;52.006;6.020;2022-12-10T13:42:27;1.20;99.90
43524;DHT22;29120;52.006;6.020;2022-12-10T13:47:45;1.20;99.90
43524;DHT22;29120;52.006;6.020;2022-12-10T13:52:55;1.00;99.90
43524;DHT22;29120;52.006;6.020;2022-12-10T14:05:14;1.00;99.90
43524;DHT22;29120;52.006;6.020;2022-12-10T14:07:45;0.90;99.90
43524;DHT22;29120;52.006;6.020;2022-12-10T14:10:13;0.90;99.90
43524;DHT22;29120;52.006;6.020;2022-12-10T14:12:39;0.90;99.90
43524;DHT22;29120;52.006;6.020;2022-12-10T14:15:07;1.00;99.90
43524;DHT22;29120;52.006;6.020;2022-12-10T14:17:34;1.00;99.90
43524;DHT22;29120;52.006;6.020;2022-12-10T14:20:03;1.00;99.90
43524;DHT22;29120;52.006;6.020;2022-12-10T14:22:39;1.00;99.90
43524;DHT22;29120;52.006;6.020;2022-12-10T14:25:13;1.10;99.90
43524;DHT22;29120;52.006;6.020;2022-12-10T14:27:38;1.00;99.90
43524;DHT22;29120;52.006;6.020;2022-12-10T14:30:05;1.00;99.90
43524;DHT22;29120;52.006;6.020;2022-12-10T14:32:32;1.00;99.90
43524;DHT22;29120;52.006;6.020;2022-12-10T14:34:59;1.00;99.90
43524;DHT22;29120;52.006;6.020;2022-12-10T14:37:26;0.90;99.90
43524;DHT22;29120;52.006;6.020;2022-12-10T14:39:52;0.90;99.90
43524;DHT22;29120;52.006;6.020;2022-12-10T14:42:18;0.90;99.90
43524;DHT22;29120;52.006;6.020;2022-12-10T14:44:43;0.80;99.90
43524;DHT22;29120;52.006;6.020;2022-12-10T14:47:19;0.80;99.90
43524;DHT22;29120;52.006;6.020;2022-12-10T14:49:46;0.80;99.90
43524;DHT22;29120;52.006;6.020;2022-12-10T14:52:16;0.80;99.90
43524;DHT22;29120;52.006;6.020;2022-12-10T14:54:42;0.80;99.90
43524;DHT22;29120;52.006;6.020;2022-12-10T14:57:10;0.70;99.90
43524;DHT22;29120;52.006;6.020;2022-12-10T14:59:40;0.60;99.90
43524;DHT22;29120;52.006;6.020;2022-12-10T15:02:12;0.50;99.90
43524;DHT22;29120;52.006;6.020;2022-12-10T15:04:40;0.50;99.90
43524;DHT22;29120;52.006;6.020;2022-12-10T15:07:08;0.50;99.90
43524;DHT22;29120;52.006;6.020;2022-12-10T15:09:36;0.50;99.90
43524;DHT22;29120;52.006;6.020;2022-12-10T15:12:02;0.50;99.90
43524;DHT22;29120;52.006;6.020;2022-12-10T15:14:28;0.40;99.90
43524;DHT22;29120;52.006;6.020;2022-12-10T15:16:55;0.40;99.90
43524;DHT22;29120;52.006;6.020;2022-12-10T15:21:56;0.30;99.90
43524;DHT22;29120;52.006;6.020;2022-12-10T15:24:41;0.40;99.90
43524;DHT22;29120;52.006;6.020;2022-12-10T15:27:14;0.50;99.90
43524;DHT22;29120;52.006;6.020;2022-12-10T15:29:40;0.50;99.90
43524;DHT22;29120;52.006;6.020;2022-12-10T15:32:13;0.50;99.90
43524;DHT22;29120;52.006;6.020;2022-12-10T15:34:41;0.60;99.90
43524;DHT22;29120;52.006;6.020;2022-12-10T15:37:14;0.60;99.90
43524;DHT22;29120;52.006;6.020;2022-12-10T15:39:45;0.60;99.90
43524;DHT22;29120;52.006;6.020;2022-12-10T15:44:56;0.60;99.90
43524;DHT22;29120;52.006;6.020;2022-12-10T15:47:24;0.60;99.90
43524;DHT22;29120;52.006;6.020;2022-12-10T15:49:52;0.60;99.90
43524;DHT22;29120;52.006;6.020;2022-12-10T15:52:28;0.50;99.90
43524;DHT22;29120;52.006;6.020;2022-12-10T15:54:54;0.60;99.90
43524;DHT22;29120;52.006;6.020;2022-12-10T15:59:53;0.50;99.90
43524;DHT22;29120;52.006;6.020;2022-12-10T16:04:47;0.60;99.90
43524;DHT22;29120;52.006;6.020;2022-12-10T16:07:12;0.70;99.90
43524;DHT22;29120;52.006;6.020;2022-12-10T16:09:41;0.70;99.90
43524;DHT22;29120;52.006;6.020;2022-12-10T16:12:07;0.80;99.90
43524;DHT22;29120;52.006;6.020;2022-12-10T16:14:35;0.90;99.90
43524;DHT22;29120;52.006;6.020;2022-12-10T16:17:01;0.90;99.90
43524;DHT22;29120;52.006;6.020;2022-12-10T16:19:26;0.90;99.90
43524;DHT22;29120;52.006;6.020;2022-12-10T16:21:52;1.00;99.90
43524;DHT22;29120;52.006;6.020;2022-12-10T16:24:17;0.90;99.90
43524;DHT22;29120;52.006;6.020;2022-12-10T16:26:43;0.90;99.90
43524;DHT22;29120;52.006;6.020;2022-12-10T16:29:09;0.90;99.90
43524;DHT22;29120;52.006;6.020;2022-12-10T16:31:35;0.90;99.90
43524;DHT22;29120;52.006;6.020;2022-12-10T16:34:00;0.90;99.90
43524;DHT22;29120;52.006;6.020;2022-12-10T16:36:26;0.90;99.90
43524;DHT22;29120;52.006;6.020;2022-12-10T16:38:51;0.90;99.90
43524;DHT22;29120;52.006;6.020;2022-12-10T16:41:23;1.00;99.90
43524;DHT22;29120;52.006;6.020;2022-12-10T16:43:49;1.00;99.90
43524;DHT22;29120;52.006;6.020;2022-12-10T16:46:14;0.90;99.90
43524;DHT22;29120;52.006;6.020;2022-12-10T16:48:39;0.90;99.90
43524;DHT22;29120;52.006;6.020;2022-12-10T16:51:06;1.00;99.90
43524;DHT22;29120;52.006;6.020;2022-12-10T16:53:37;1.00;99.90
43524;DHT22;29120;52.006;6.020;2022-12-10T16:56:03;1.00;99.90
43524;DHT22;29120;52.006;6.020;2022-12-10T16:58:29;1.00;99.90
43524;DHT22;29120;52.006;6.020;2022-12-10T17:00:55;1.00;99.90
43524;DHT22;29120;52.006;6.020;2022-12-10T17:03:24;1.10;99.90
43524;DHT22;29120;52.006;6.020;2022-12-10T17:05:57;1.10;99.90
43524;DHT22;29120;52.006;6.020;2022-12-10T17:08:23;1.10;99.90
43524;DHT22;29120;52.006;6.020;2022-12-10T17:10:49;1.20;99.90
43524;DHT22;29120;52.006;6.020;2022-12-10T17:13:34;1.20;99.90
43524;DHT22;29120;52.006;6.020;2022-12-10T17:16:00;1.20;99.90
43524;DHT22;29120;52.006;6.020;2022-12-10T17:18:26;1.20;99.90
43524;DHT22;29120;52.006;6.020;2022-12-10T17:20:51;1.20;99.90
43524;DHT22;29120;52.006;6.020;2022-12-10T17:23:17;1.20;99.90
43524;DHT22;29120;52.006;6.020;2022-12-10T17:25:43;1.10;99.90
43524;DHT22;29120;52.006;6.020;2022-12-10T17:28:16;1.20;99.90
43524;DHT22;29120;52.006;6.020;2022-12-10T17:30:42;1.20;99.90